Time;durP1;ratioP1;P1;durP2;ratioP2;P2;SDS_P1;SDS_P2;PMS_P1;PMS_P2;Temp;Humidity;BMP_temperature;BMP_pressure;BME280_temperature;BME280_humidity;BME280_pressure;Samples;Min_cycle;Max_cycle;Signal;HPM_P1;HPM_P2
2022/10/06 00:01:45;;;;;;;16.60;3.57;;;15.10;99.90;;;;;;5031949;28;20474;-75
2022/10/06 00:04:31;;;;;;;13.13;3.20;;;15.00;99.90;;;;;;5040107;28;20799;-75
2022/10/06 00:07:18;;;;;;;4.27;2.63;;;14.90;99.90;;;;;;5035449;28;20494;-75
2022/10/06 00:10:05;;;;;;;9.63;4.13;;;14.90;99.90;;;;;;5045181;28;20472;-75
2022/10/06 00:12:52;;;;;;;9.00;3.40;;;14.90;99.90;;;;;;5039915;28;20419;-75
2022/10/06 00:15:37;;;;;;;5.93;3.93;;;14.90;99.90;;;;;;5038890;28;20571;-74
2022/10/06 00:18:23;;;;;;;7.50;3.33;;;14.90;99.90;;;;;;5039927;28;20431;-75
2022/10/06 00:21:09;;;;;;;8.50;3.90;;;14.90;99.90;;;;;;5031218;28;20444;-75
2022/10/06 00:23:56;;;;;;;4.70;3.43;;;14.90;99.90;;;;;;5040125;28;21109;-75
2022/10/06 00:26:42;;;;;;;4.20;2.70;;;15.00;99.90;;;;;;5034444;28;20406;-75
2022/10/06 00:29:27;;;;;;;11.67;3.20;;;15.10;99.90;;;;;;5034285;28;20402;-75
2022/10/06 00:32:13;;;;;;;5.87;2.60;;;15.10;99.90;;;;;;5027729;28;20419;-75
2022/10/06 00:34:59;;;;;;;4.63;3.13;;;15.00;99.90;;;;;;5028424;28;20467;-74
2022/10/06 00:37:45;;;;;;;4.73;3.23;;;14.90;99.90;;;;;;5029988;28;20463;-75
2022/10/06 00:40:32;;;;;;;6.37;3.30;;;15.00;99.90;;;;;;5024181;28;20443;-75
2022/10/06 00:43:45;;;;;;;7.17;3.27;;;14.90;99.90;;;;;;5027747;28;20731;-75
2022/10/06 00:46:36;;;;;;;8.53;4.07;;;14.90;99.90;;;;;;5031646;28;20488;-75
2022/10/06 00:49:28;;;;;;;6.70;3.70;;;14.90;99.90;;;;;;5033458;28;20530;-75
2022/10/06 00:52:16;;;;;;;6.67;3.57;;;14.90;99.90;;;;;;5033561;28;20806;-75
2022/10/06 00:55:03;;;;;;;8.77;3.30;;;14.80;99.90;;;;;;5024996;28;20452;-75
2022/10/06 00:57:52;;;;;;;11.33;3.60;;;14.80;99.90;;;;;;5026742;28;20920;-75
2022/10/06 01:00:38;;;;;;;8.00;3.60;;;14.70;99.90;;;;;;5031216;28;20430;-75
2022/10/06 01:03:28;;;;;;;4.67;2.90;;;14.70;99.90;;;;;;5035755;28;20567;-75
2022/10/06 01:06:14;;;;;;;5.60;3.27;;;14.70;99.90;;;;;;5031123;28;20501;-75
2022/10/06 01:09:00;;;;;;;10.13;3.63;;;14.60;99.90;;;;;;5028231;28;20562;-75
2022/10/06 01:11:49;;;;;;;10.60;3.53;;;14.70;99.90;;;;;;5024355;28;21176;-74
2022/10/06 01:14:38;;;;;;;6.50;3.33;;;14.70;99.90;;;;;;5037814;28;20498;-75
2022/10/06 01:17:30;;;;;;;6.97;3.37;;;14.80;99.90;;;;;;5028815;28;20474;-75
2022/10/06 01:20:18;;;;;;;6.10;3.70;;;14.90;99.90;;;;;;5036021;28;20465;-75
2022/10/06 01:23:09;;;;;;;12.47;3.80;;;14.80;99.90;;;;;;5041637;28;20954;-75
2022/10/06 01:25:55;;;;;;;6.47;3.90;;;14.90;99.90;;;;;;5032593;28;20399;-75
2022/10/06 01:28:40;;;;;;;5.97;3.67;;;14.90;99.90;;;;;;5040265;28;20428;-75
2022/10/06 01:31:27;;;;;;;10.13;3.97;;;15.00;99.90;;;;;;5033771;28;20589;-75
2022/10/06 01:34:12;;;;;;;10.70;4.03;;;15.00;99.90;;;;;;5025099;28;20541;-75
2022/10/06 01:36:58;;;;;;;9.33;3.33;;;15.00;99.90;;;;;;5040238;28;20427;-75
2022/10/06 01:39:45;;;;;;;10.77;3.67;;;15.10;99.90;;;;;;5026990;28;20876;-75
2022/10/06 01:42:32;;;;;;;6.87;3.37;;;15.20;99.90;;;;;;5021773;28;20440;-75
2022/10/06 01:45:18;;;;;;;6.50;3.73;;;15.30;99.90;;;;;;5018972;28;20521;-75
2022/10/06 01:48:04;;;;;;;6.50;3.97;;;15.30;99.90;;;;;;5030878;28;21030;-75
2022/10/06 01:50:50;;;;;;;7.07;3.67;;;15.40;99.90;;;;;;5026851;28;20519;-75
2022/10/06 01:53:35;;;;;;;10.53;4.40;;;15.50;99.90;;;;;;5022349;28;20572;-75
2022/10/06 01:56:22;;;;;;;7.90;4.03;;;15.50;99.90;;;;;;5023354;28;20581;-75
2022/10/06 01:59:08;;;;;;;5.30;3.97;;;15.70;99.90;;;;;;5027807;28;21134;-76
2022/10/06 02:01:54;;;;;;;8.20;4.30;;;15.70;99.90;;;;;;5033507;28;20436;-75
2022/10/06 02:04:40;;;;;;;11.83;4.70;;;15.70;99.90;;;;;;5040750;28;20470;-75
2022/10/06 02:07:26;;;;;;;8.13;3.80;;;15.90;99.90;;;;;;5030139;28;20443;-75
2022/10/06 02:10:12;;;;;;;8.23;4.00;;;16.00;99.90;;;;;;5030592;28;20467;-75
2022/10/06 02:12:58;;;;;;;4.90;3.70;;;16.10;99.90;;;;;;5041657;28;20443;-75
2022/10/06 02:15:44;;;;;;;10.30;4.40;;;16.10;99.90;;;;;;5034738;28;20552;-75
2022/10/06 02:18:30;;;;;;;9.60;4.90;;;16.10;99.90;;;;;;5026598;28;20451;-75
2022/10/06 02:21:18;;;;;;;8.83;4.10;;;16.20;99.90;;;;;;5034527;28;20386;-75
2022/10/06 02:24:04;;;;;;;7.93;3.70;;;16.30;99.90;;;;;;5040748;28;20509;-75
2022/10/06 02:26:49;;;;;;;6.80;3.97;;;16.30;99.90;;;;;;5045101;28;20563;-75
2022/10/06 02:29:36;;;;;;;14.50;4.07;;;16.30;99.90;;;;;;5034288;28;20964;-75
2022/10/06 02:32:22;;;;;;;10.93;4.10;;;16.40;99.90;;;;;;5034055;28;20498;-75
2022/10/06 02:35:11;;;;;;;7.97;3.97;;;16.40;99.90;;;;;;5044216;28;20456;-74
2022/10/06 02:37:57;;;;;;;12.40;5.33;;;16.50;99.90;;;;;;5037775;28;20495;-75
2022/10/06 02:40:44;;;;;;;5.60;3.70;;;16.50;99.90;;;;;;5035584;28;20502;-75
2022/10/06 02:43:30;;;;;;;6.87;3.70;;;16.50;99.90;;;;;;5031674;28;20945;-75
2022/10/06 02:46:17;;;;;;;8.63;4.40;;;16.60;99.90;;;;;;5030443;28;20906;-75
2022/10/06 02:49:03;;;;;;;8.73;3.87;;;16.70;99.90;;;;;;5025749;28;20423;-75
2022/10/06 02:51:49;;;;;;;7.80;4.53;;;16.70;99.90;;;;;;5024288;28;20927;-75
2022/10/06 02:54:35;;;;;;;9.87;4.47;;;16.70;99.90;;;;;;5024526;28;20576;-76
2022/10/06 02:57:20;;;;;;;11.77;4.33;;;16.80;99.90;;;;;;5027070;28;20418;-75
2022/10/06 03:00:08;;;;;;;9.70;4.50;;;16.80;99.90;;;;;;5029989;28;20415;-75
2022/10/06 03:02:55;;;;;;;16.27;4.63;;;16.90;99.90;;;;;;5031904;28;20833;-75
2022/10/06 03:05:40;;;;;;;8.47;5.43;;;16.90;99.90;;;;;;5029947;28;20422;-76
2022/10/06 03:08:26;;;;;;;11.53;4.67;;;16.80;99.90;;;;;;5024571;28;20435;-75
2022/10/06 03:11:12;;;;;;;6.90;4.03;;;16.70;99.90;;;;;;5036818;28;21177;-75
2022/10/06 03:13:58;;;;;;;6.57;4.37;;;16.80;99.90;;;;;;5031210;28;20438;-75
2022/10/06 03:16:43;;;;;;;12.60;4.50;;;16.70;99.90;;;;;;5033983;28;20534;-75
2022/10/06 03:19:30;;;;;;;8.80;4.17;;;16.70;99.90;;;;;;5031753;28;20409;-75
2022/10/06 03:22:16;;;;;;;5.00;3.70;;;16.60;99.90;;;;;;5041832;28;20798;-75
2022/10/06 03:25:02;;;;;;;9.00;4.00;;;16.60;99.90;;;;;;5029981;28;20489;-75
2022/10/06 03:27:48;;;;;;;4.97;3.70;;;16.60;99.90;;;;;;5025765;28;20440;-75
2022/10/06 03:30:35;;;;;;;10.20;4.43;;;16.50;99.90;;;;;;5038086;28;20436;-76
2022/10/06 03:33:20;;;;;;;6.47;3.60;;;16.50;99.90;;;;;;5035895;28;20537;-76
2022/10/06 03:36:10;;;;;;;11.10;3.60;;;16.50;99.90;;;;;;5039718;28;20507;-74
2022/10/06 03:38:56;;;;;;;5.57;3.33;;;16.40;99.90;;;;;;5034056;28;20435;-75
2022/10/06 03:41:41;;;;;;;10.73;3.20;;;16.30;99.90;;;;;;5026467;28;20411;-75
2022/10/06 03:44:27;;;;;;;8.87;3.40;;;16.30;99.90;;;;;;5030613;28;20468;-75
2022/10/06 03:47:13;;;;;;;5.53;3.00;;;16.20;99.90;;;;;;5027200;28;20623;-75
2022/10/06 03:49:58;;;;;;;3.37;2.57;;;16.30;99.90;;;;;;5030666;28;20507;-75
2022/10/06 03:52:50;;;;;;;3.50;2.60;;;16.20;99.90;;;;;;5037135;28;20490;-74
2022/10/06 03:55:35;;;;;;;5.53;2.67;;;16.10;99.90;;;;;;5036733;28;20554;-75
2022/10/06 03:58:21;;;;;;;7.30;2.30;;;16.10;99.90;;;;;;5028038;28;20488;-75
2022/10/06 04:01:09;;;;;;;12.23;2.77;;;16.10;99.90;;;;;;5032008;28;20576;-75
2022/10/06 04:03:56;;;;;;;4.30;2.70;;;16.10;99.90;;;;;;5040286;28;20934;-75
2022/10/06 04:06:44;;;;;;;3.20;2.33;;;16.10;99.90;;;;;;5039578;28;20498;-75
2022/10/06 04:09:31;;;;;;;6.10;2.53;;;16.10;99.90;;;;;;5039043;28;20549;-75
2022/10/06 04:12:16;;;;;;;4.70;2.57;;;16.20;99.90;;;;;;5030911;28;20480;-75
2022/10/06 04:15:02;;;;;;;3.17;1.80;;;16.30;99.90;;;;;;5028645;28;20488;-75
2022/10/06 04:17:48;;;;;;;4.83;2.20;;;16.20;99.90;;;;;;5029889;28;20435;-75
2022/10/06 04:20:33;;;;;;;4.27;2.13;;;16.20;99.90;;;;;;5040594;28;20590;-75
2022/10/06 04:23:20;;;;;;;3.30;2.00;;;16.20;99.90;;;;;;5025596;28;20467;-75
2022/10/06 04:26:10;;;;;;;2.43;2.07;;;16.20;99.90;;;;;;5027427;28;20591;-75
2022/10/06 04:28:56;;;;;;;2.80;1.70;;;16.20;99.90;;;;;;5030248;28;20457;-76
2022/10/06 04:31:42;;;;;;;4.40;2.00;;;16.10;99.90;;;;;;5028083;28;20538;-76
2022/10/06 04:34:28;;;;;;;5.27;2.10;;;16.20;99.90;;;;;;5024390;28;20473;-75
2022/10/06 04:37:13;;;;;;;8.00;2.30;;;16.20;99.90;;;;;;5028160;28;20413;-75
2022/10/06 04:39:59;;;;;;;5.23;1.77;;;16.10;99.90;;;;;;5031054;28;20466;-75
2022/10/06 04:42:46;;;;;;;7.10;2.13;;;16.10;99.90;;;;;;5033061;28;20924;-75
2022/10/06 04:45:32;;;;;;;5.87;2.00;;;16.10;99.90;;;;;;5024366;28;20493;-75
2022/10/06 04:48:17;;;;;;;4.33;1.40;;;16.10;99.90;;;;;;5029365;28;20826;-75
2022/10/06 04:51:06;;;;;;;2.73;1.20;;;15.90;99.90;;;;;;5028127;28;20773;-75
2022/10/06 04:53:51;;;;;;;6.33;1.93;;;15.90;99.90;;;;;;5019611;28;20813;-75
2022/10/06 04:56:37;;;;;;;9.57;2.13;;;15.90;99.90;;;;;;5023583;28;20940;-75
2022/10/06 05:00:21;;;;;;;4.00;1.90;;;15.90;99.90;;;;;;5029773;28;20436;-75
2022/10/06 05:02:30;;;;;;;4.13;1.70;;;15.90;99.90;;;;;;5036581;28;20426;-75
2022/10/06 05:05:16;;;;;;;2.20;1.40;;;16.00;99.90;;;;;;5026989;28;20476;-74
2022/10/06 05:08:02;;;;;;;4.30;1.60;;;16.00;99.90;;;;;;5029311;28;20418;-75
2022/10/06 05:10:47;;;;;;;10.33;1.20;;;16.00;99.90;;;;;;5029657;28;20460;-75
2022/10/06 05:13:33;;;;;;;3.70;1.53;;;15.90;99.90;;;;;;5032893;28;20522;-75
2022/10/06 05:16:22;;;;;;;2.30;1.60;;;15.80;99.90;;;;;;5036786;28;20788;-75
2022/10/06 05:19:07;;;;;;;13.67;1.67;;;15.80;99.90;;;;;;5038471;28;20399;-75
2022/10/06 05:21:53;;;;;;;3.93;1.53;;;15.70;99.90;;;;;;5043568;28;20428;-75
2022/10/06 05:24:39;;;;;;;3.30;1.67;;;15.70;99.90;;;;;;5035427;28;21017;-75
2022/10/06 05:27:24;;;;;;;4.13;1.37;;;15.80;99.90;;;;;;5037890;28;20442;-75
2022/10/06 05:30:11;;;;;;;5.87;1.67;;;15.80;99.90;;;;;;5045679;28;20440;-75
2022/10/06 05:32:58;;;;;;;2.80;1.60;;;15.80;99.90;;;;;;5045934;28;20474;-75
2022/10/06 05:35:51;;;;;;;8.40;1.53;;;15.90;99.90;;;;;;5021317;28;20579;-75
2022/10/06 05:38:37;;;;;;;7.43;1.30;;;15.90;99.90;;;;;;5042728;28;20544;-75
2022/10/06 05:41:25;;;;;;;6.00;1.37;;;15.90;99.90;;;;;;5042343;28;20427;-75
2022/10/06 05:44:10;;;;;;;2.83;1.30;;;15.80;99.90;;;;;;5050209;28;20444;-75
2022/10/06 05:46:56;;;;;;;4.37;1.23;;;15.70;99.90;;;;;;5040025;28;20558;-75
2022/10/06 05:49:43;;;;;;;10.50;1.60;;;15.70;99.90;;;;;;5039367;28;20406;-75
2022/10/06 05:52:29;;;;;;;7.37;1.27;;;15.70;99.90;;;;;;5030972;28;20983;-75
2022/10/06 05:55:15;;;;;;;5.73;1.40;;;15.60;99.90;;;;;;5035796;28;20455;-75
2022/10/06 05:58:00;;;;;;;7.83;1.00;;;15.50;99.90;;;;;;5034130;28;20550;-75
2022/10/06 06:00:46;;;;;;;3.67;1.37;;;15.40;99.90;;;;;;5043244;28;20423;-75
2022/10/06 06:03:31;;;;;;;5.60;1.40;;;15.40;99.90;;;;;;5026064;28;21031;-75
2022/10/06 06:06:20;;;;;;;3.47;1.47;;;15.50;99.90;;;;;;5035561;28;20443;-75
2022/10/06 06:09:08;;;;;;;3.73;2.00;;;15.50;99.90;;;;;;5040448;28;20411;-75
2022/10/06 06:11:54;;;;;;;10.67;5.87;;;15.50;99.90;;;;;;5046503;28;20859;-75
2022/10/06 06:17:43;;;;;;;9.83;5.90;;;15.50;99.90;;;;;;5033306;28;20804;-75
2022/10/06 06:20:28;;;;;;;12.80;7.93;;;15.50;99.90;;;;;;5034597;28;20492;-75
2022/10/06 06:23:15;;;;;;;36.17;22.00;;;15.60;99.90;;;;;;5037040;28;20528;-75
2022/10/06 06:26:02;;;;;;;25.53;16.77;;;15.50;99.90;;;;;;5028561;28;20452;-75
2022/10/06 06:28:49;;;;;;;27.60;17.83;;;15.40;99.90;;;;;;5037051;28;20558;-74
2022/10/06 06:31:37;;;;;;;31.63;17.40;;;15.40;99.90;;;;;;5032084;28;20469;-75
2022/10/06 06:34:24;;;;;;;44.80;31.50;;;15.40;99.90;;;;;;5030731;28;20504;-75
2022/10/06 06:37:10;;;;;;;5.80;4.30;;;15.50;99.90;;;;;;5031175;28;20423;-75
2022/10/06 06:39:57;;;;;;;4.90;3.27;;;15.60;99.90;;;;;;5032574;28;20456;-74
2022/10/06 06:42:42;;;;;;;6.43;4.27;;;15.60;99.90;;;;;;5036748;28;20435;-75
2022/10/06 06:45:28;;;;;;;6.40;4.90;;;15.60;99.90;;;;;;5028251;28;20912;-75
2022/10/06 06:48:15;;;;;;;9.73;4.07;;;15.70;99.90;;;;;;5034023;28;20422;-75
2022/10/06 06:51:01;;;;;;;7.70;5.13;;;15.70;99.90;;;;;;5030464;28;20419;-75
2022/10/06 06:53:46;;;;;;;8.63;2.60;;;15.70;99.90;;;;;;5027926;28;20455;-75
2022/10/06 06:56:35;;;;;;;7.30;4.37;;;15.60;99.90;;;;;;5034541;28;20449;-75
2022/10/06 06:59:20;;;;;;;5.00;2.10;;;15.70;99.90;;;;;;5035666;28;20781;-75
2022/10/06 07:02:06;;;;;;;6.80;1.40;;;15.80;99.90;;;;;;5036446;28;20475;-75
2022/10/06 07:04:51;;;;;;;8.63;2.00;;;15.90;99.90;;;;;;5032115;28;20726;-75
2022/10/06 07:07:38;;;;;;;12.40;2.27;;;15.90;99.90;;;;;;5035734;28;20403;-75
2022/10/06 07:10:26;;;;;;;3.80;1.67;;;16.10;99.90;;;;;;5038240;28;20525;-75
2022/10/06 07:13:15;;;;;;;7.60;1.80;;;16.10;99.90;;;;;;5037308;28;20468;-75
2022/10/06 07:25:30;;;;;;;15.43;4.53;;;16.20;99.90;;;;;;5037882;28;20452;-75
2022/10/06 07:28:17;;;;;;;10.40;2.40;;;16.10;99.90;;;;;;5035766;28;20444;-75
2022/10/06 07:31:03;;;;;;;6.37;1.67;;;16.10;99.90;;;;;;5030424;28;20807;-74
2022/10/06 07:33:51;;;;;;;6.10;1.93;;;16.10;99.90;;;;;;5023637;28;20476;-74
2022/10/06 07:36:36;;;;;;;6.47;2.20;;;16.10;99.90;;;;;;5030699;28;20443;-75
2022/10/06 07:39:22;;;;;;;7.57;1.70;;;16.00;99.90;;;;;;5032111;28;20456;-75
2022/10/06 07:42:09;;;;;;;14.23;2.93;;;15.90;99.90;;;;;;5039047;28;20800;-75
2022/10/06 07:48:00;;;;;;;5.47;1.60;;;16.00;99.90;;;;;;5033101;28;20463;-75
2022/10/06 07:50:48;;;;;;;11.20;2.40;;;16.10;99.90;;;;;;5035727;28;20462;-74
2022/10/06 07:53:34;;;;;;;6.13;1.30;;;16.10;99.90;;;;;;5024127;28;20451;-75
2022/10/06 07:56:20;;;;;;;5.30;1.73;;;16.10;99.90;;;;;;5030699;28;20980;-75
2022/10/06 07:59:06;;;;;;;6.53;1.10;;;16.20;99.90;;;;;;5046567;28;20405;-74
2022/10/06 08:01:53;;;;;;;6.60;1.50;;;16.20;99.90;;;;;;5047159;28;20414;-75
2022/10/06 08:04:39;;;;;;;7.73;1.40;;;16.40;99.90;;;;;;5030308;28;20554;-75
2022/10/06 08:07:26;;;;;;;6.83;1.60;;;16.40;99.90;;;;;;5037512;28;20451;-75
2022/10/06 08:10:11;;;;;;;8.97;1.50;;;16.50;99.90;;;;;;5038441;28;20415;-75
2022/10/06 08:12:57;;;;;;;6.70;1.70;;;16.50;99.90;;;;;;5026502;28;20446;-75
2022/10/06 08:15:42;;;;;;;4.37;1.30;;;16.50;99.90;;;;;;5030925;28;20935;-75
2022/10/06 08:18:29;;;;;;;7.30;1.67;;;16.50;99.90;;;;;;5033216;28;20411;-75
2022/10/06 08:21:18;;;;;;;4.23;1.10;;;16.40;99.90;;;;;;5037967;28;20554;-75
2022/10/06 08:24:03;;;;;;;3.47;1.47;;;16.60;99.90;;;;;;5028790;28;21022;-75
2022/10/06 08:26:49;;;;;;;11.53;1.73;;;16.70;99.90;;;;;;5040493;28;20452;-75
2022/10/06 08:29:35;;;;;;;9.83;1.60;;;16.80;98.10;;;;;;5024827;28;20554;-75
2022/10/06 08:32:21;;;;;;;14.10;1.40;;;16.80;99.90;;;;;;5028295;28;20471;-75
2022/10/06 08:35:09;;;;;;;5.30;1.20;;;16.90;98.20;;;;;;5038140;28;20438;-74
2022/10/06 08:37:54;;;;;;;5.10;1.20;;;16.80;90.70;;;;;;5034278;28;20460;-75
2022/10/06 08:40:42;;;;;;;8.90;1.50;;;16.80;88.40;;;;;;5031041;28;20527;-75
2022/10/06 08:43:30;;;;;;;11.57;1.97;;;16.70;90.90;;;;;;5024598;28;20464;-75
2022/10/06 08:46:17;;;;;;;4.90;1.47;;;16.70;88.30;;;;;;5030738;28;20462;-75
2022/10/06 08:49:04;;;;;;;4.43;1.37;;;16.70;82.90;;;;;;5034705;28;20434;-75
2022/10/06 08:51:57;;;;;;;6.53;1.20;;;16.80;88.90;;;;;;5021831;28;20502;-74
2022/10/06 08:54:48;;;;;;;9.93;2.07;;;16.70;86.60;;;;;;5027208;28;20806;-74
2022/10/06 08:57:42;;;;;;;12.83;2.03;;;16.70;87.60;;;;;;5030265;28;20448;-75
2022/10/06 09:00:32;;;;;;;13.10;1.87;;;16.70;90.50;;;;;;5030300;28;20438;-75
2022/10/06 09:03:21;;;;;;;4.80;1.40;;;16.80;91.30;;;;;;5034507;28;20470;-75
2022/10/06 09:06:15;;;;;;;7.73;1.30;;;16.90;89.60;;;;;;5043242;28;20419;-75
2022/10/06 09:09:09;;;;;;;4.70;1.40;;;16.90;88.00;;;;;;5027151;28;20457;-76
2022/10/06 09:12:03;;;;;;;6.00;1.63;;;17.00;89.30;;;;;;5028852;28;20430;-76
2022/10/06 09:14:55;;;;;;;5.03;1.33;;;17.20;88.60;;;;;;5030102;28;20431;-74
2022/10/06 09:17:48;;;;;;;10.33;1.70;;;17.30;86.00;;;;;;5036259;28;20544;-75
2022/10/06 09:20:38;;;;;;;6.33;1.70;;;17.50;78.10;;;;;;5028256;28;20453;-75
2022/10/06 09:26:30;;;;;;;4.40;1.20;;;17.70;69.10;;;;;;5035371;28;20453;-76
2022/10/06 09:29:16;;;;;;;8.20;1.83;;;17.80;62.00;;;;;;5036626;28;20476;-75
2022/10/06 09:32:02;;;;;;;8.33;1.90;;;17.90;65.70;;;;;;5030616;28;20434;-75
2022/10/06 09:34:51;;;;;;;9.77;1.63;;;18.10;66.30;;;;;;5026131;28;20449;-75
2022/10/06 09:37:53;;;;;;;8.73;1.90;;;18.00;59.50;;;;;;5026782;28;20449;-76
2022/10/06 09:40:47;;;;;;;4.47;1.83;;;18.00;59.20;;;;;;5027425;28;20463;-75
2022/10/06 09:43:34;;;;;;;12.50;1.80;;;17.90;57.40;;;;;;5033592;28;20490;-75
2022/10/06 09:46:23;;;;;;;6.10;1.93;;;18.00;58.80;;;;;;5034322;28;20563;-75
2022/10/06 09:49:17;;;;;;;9.93;2.03;;;18.00;59.20;;;;;;5035988;28;20440;-75
2022/10/06 09:52:11;;;;;;;11.27;1.93;;;18.20;55.90;;;;;;5032117;28;20433;-73
2022/10/06 09:55:06;;;;;;;5.70;1.50;;;18.40;51.60;;;;;;5027342;28;20439;-73
2022/10/06 09:57:54;;;;;;;8.73;2.00;;;18.50;51.70;;;;;;5014940;28;20474;-73
2022/10/06 10:00:47;;;;;;;7.77;1.70;;;18.40;51.60;;;;;;5028640;28;20449;-72
2022/10/06 10:03:50;;;;;;;7.17;1.47;;;18.60;48.70;;;;;;5026972;28;20812;-73
2022/10/06 10:06:36;;;;;;;4.87;1.60;;;18.80;49.20;;;;;;5024756;28;20599;-73
2022/10/06 10:09:26;;;;;;;5.60;1.80;;;18.90;43.50;;;;;;5031397;28;20444;-73
2022/10/06 10:12:30;;;;;;;18.67;1.90;;;19.00;44.10;;;;;;5028347;28;20419;-73
2022/10/06 10:15:26;;;;;;;6.13;2.10;;;19.00;42.60;;;;;;5031154;28;20447;-73
2022/10/06 10:18:15;;;;;;;7.00;1.97;;;18.80;41.80;;;;;;5032184;28;20411;-73
2022/10/06 10:21:04;;;;;;;9.10;2.97;;;18.90;45.80;;;;;;5029059;28;20806;-74
2022/10/06 10:23:55;;;;;;;16.73;2.00;;;19.00;40.90;;;;;;5027574;28;20490;-72
2022/10/06 10:26:52;;;;;;;9.20;1.93;;;19.00;38.30;;;;;;5027138;28;20940;-74
2022/10/06 10:29:49;;;;;;;8.30;1.70;;;19.10;40.30;;;;;;5026218;28;20448;-74
2022/10/06 10:32:55;;;;;;;10.57;1.23;;;19.10;39.40;;;;;;5031042;28;20451;-72
2022/10/06 10:35:47;;;;;;;5.93;1.80;;;18.90;40.90;;;;;;5026722;28;20428;-74
2022/10/06 10:38:39;;;;;;;3.37;1.43;;;19.10;39.40;;;;;;5033397;28;20501;-76
2022/10/06 10:41:34;;;;;;;10.00;1.53;;;19.20;38.20;;;;;;5022556;28;20529;-75
2022/10/06 10:44:28;;;;;;;8.27;1.40;;;19.60;37.10;;;;;;5029613;28;20471;-75
2022/10/06 10:47:20;;;;;;;5.70;1.67;;;19.90;35.50;;;;;;5028839;28;20425;-75
2022/10/06 10:50:11;;;;;;;5.00;1.40;;;20.00;35.20;;;;;;5026024;28;20464;-75
2022/10/06 10:53:07;;;;;;;6.67;1.47;;;20.10;34.60;;;;;;5018831;28;20603;-76
2022/10/06 10:55:53;;;;;;;4.97;1.50;;;20.20;31.80;;;;;;5029004;28;20948;-76
2022/10/06 10:58:41;;;;;;;6.83;1.10;;;19.90;31.70;;;;;;5033967;28;20423;-76
2022/10/06 11:01:35;;;;;;;10.00;1.57;;;19.40;32.20;;;;;;5021693;28;20984;-76
2022/10/06 11:04:20;;;;;;;6.67;1.40;;;18.90;31.10;;;;;;5030362;28;20439;-76
2022/10/06 11:07:22;;;;;;;5.50;1.43;;;18.80;34.30;;;;;;5027958;28;20419;-75
2022/10/06 11:10:15;;;;;;;10.23;1.60;;;18.50;32.20;;;;;;5024192;28;20427;-76
2022/10/06 11:13:13;;;;;;;7.63;1.80;;;18.60;38.10;;;;;;5031280;28;20475;-76
2022/10/06 11:16:18;;;;;;;6.30;1.53;;;18.50;34.20;;;;;;5031272;28;20418;-76
2022/10/06 11:19:15;;;;;;;8.57;1.20;;;18.50;33.40;;;;;;5027763;28;20527;-76
2022/10/06 11:22:06;;;;;;;5.83;1.77;;;18.70;34.70;;;;;;5030869;28;20928;-76
2022/10/06 11:25:04;;;;;;;6.70;1.20;;;18.80;31.50;;;;;;5023742;28;20965;-76
2022/10/06 11:28:00;;;;;;;6.63;1.50;;;19.00;34.10;;;;;;5018221;28;20424;-75
2022/10/06 11:30:59;;;;;;;4.43;1.07;;;19.20;33.40;;;;;;5020168;28;20431;-76
2022/10/06 11:33:49;;;;;;;4.60;1.40;;;19.40;33.00;;;;;;5032457;28;20453;-74
2022/10/06 11:36:45;;;;;;;8.40;1.73;;;19.20;30.20;;;;;;5022260;28;20440;-74
2022/10/06 11:39:38;;;;;;;5.80;1.70;;;19.20;29.80;;;;;;5034797;28;20970;-76
2022/10/06 11:42:29;;;;;;;10.93;1.90;;;19.20;30.40;;;;;;5024109;28;20913;-74
2022/10/06 11:45:19;;;;;;;7.17;1.80;;;19.20;29.30;;;;;;5034014;28;20414;-73
2022/10/06 11:48:24;;;;;;;5.23;1.23;;;19.10;31.90;;;;;;5013605;28;20573;-73
2022/10/06 11:51:29;;;;;;;8.67;1.30;;;19.00;29.30;;;;;;5016707;28;20443;-73
2022/10/06 11:54:43;;;;;;;10.40;2.00;;;19.00;30.30;;;;;;5020576;28;20450;-73
2022/10/06 11:57:33;;;;;;;13.10;2.10;;;18.90;27.50;;;;;;5030769;28;20449;-74
2022/10/06 12:00:46;;;;;;;9.80;1.90;;;18.90;28.90;;;;;;5029750;28;20813;-74
2022/10/06 12:04:08;;;;;;;9.00;1.30;;;19.00;30.30;;;;;;5024717;28;20463;-74
2022/10/06 12:07:04;;;;;;;6.33;1.30;;;19.10;27.70;;;;;;5025408;28;20473;-74
2022/10/06 12:09:49;;;;;;;11.23;1.70;;;19.10;27.30;;;;;;5031327;28;20427;-73
2022/10/06 12:12:44;;;;;;;7.07;1.20;;;19.10;28.50;;;;;;5039165;28;20503;-74
2022/10/06 12:16:11;;;;;;;4.57;0.87;;;19.40;30.00;;;;;;5026582;28;20513;-74
2022/10/06 12:19:15;;;;;;;3.77;1.23;;;19.40;26.70;;;;;;5018531;28;20424;-73
2022/10/06 12:22:11;;;;;;;5.70;1.30;;;19.70;27.40;;;;;;5016535;28;20427;-74
2022/10/06 12:25:04;;;;;;;5.83;1.13;;;19.60;24.10;;;;;;5022520;28;20801;-73
2022/10/06 12:28:03;;;;;;;3.60;1.13;;;19.40;25.50;;;;;;5030186;28;20433;-74
2022/10/06 12:31:22;;;;;;;7.30;1.40;;;19.40;24.50;;;;;;5029589;28;20465;-73
2022/10/06 12:34:44;;;;;;;5.60;1.30;;;19.60;24.60;;;;;;5038839;28;20478;-74
2022/10/06 12:37:43;;;;;;;8.23;1.30;;;19.90;28.90;;;;;;5020125;28;20460;-74
2022/10/06 12:40:53;;;;;;;4.83;1.63;;;20.20;28.10;;;;;;5030169;28;20439;-74
2022/10/06 12:43:57;;;;;;;7.63;1.37;;;20.50;26.40;;;;;;5030732;28;20537;-73
2022/10/06 12:46:46;;;;;;;4.63;1.10;;;20.50;26.10;;;;;;5029511;28;20945;-73
2022/10/06 12:49:52;;;;;;;8.80;1.60;;;20.60;26.90;;;;;;5027039;28;20922;-73
2022/10/06 12:52:49;;;;;;;4.63;1.10;;;20.50;26.80;;;;;;5031437;28;20432;-74
2022/10/06 12:55:44;;;;;;;4.90;1.33;;;20.50;26.80;;;;;;5026934;28;20439;-73
2022/10/06 12:58:32;;;;;;;4.40;1.30;;;20.40;26.60;;;;;;5028412;28;20478;-74
2022/10/06 13:01:18;;;;;;;7.10;1.57;;;20.30;27.30;;;;;;5036995;28;20422;-74
2022/10/06 13:04:04;;;;;;;7.93;1.93;;;20.50;28.10;;;;;;5038472;28;20472;-74
2022/10/06 13:06:49;;;;;;;6.90;1.50;;;20.80;28.40;;;;;;5029806;28;20418;-74
2022/10/06 13:09:37;;;;;;;6.97;1.77;;;21.00;27.10;;;;;;5024184;28;20431;-74
2022/10/06 13:12:29;;;;;;;4.97;1.23;;;21.30;26.00;;;;;;5025611;28;20424;-74
2022/10/06 13:15:17;;;;;;;4.10;1.20;;;21.50;25.90;;;;;;5028345;28;20464;-74
2022/10/06 13:18:13;;;;;;;5.87;1.20;;;21.80;26.20;;;;;;5022284;28;20578;-74
2022/10/06 13:21:00;;;;;;;8.43;1.60;;;21.80;25.40;;;;;;5025284;28;20491;-74
2022/10/06 13:23:47;;;;;;;11.97;1.70;;;21.50;26.30;;;;;;5029315;28;20815;-74
2022/10/06 13:26:34;;;;;;;6.07;1.43;;;21.00;26.50;;;;;;5024582;28;20424;-73
2022/10/06 13:29:23;;;;;;;8.30;1.23;;;21.10;26.60;;;;;;5019750;28;20907;-74
2022/10/06 13:32:17;;;;;;;7.13;1.63;;;21.30;27.50;;;;;;5038346;28;20407;-73
2022/10/06 13:35:03;;;;;;;5.43;1.60;;;21.60;27.20;;;;;;5027083;28;20530;-73
2022/10/06 13:37:49;;;;;;;5.30;1.10;;;21.80;27.20;;;;;;5019791;28;20990;-74
2022/10/06 13:40:35;;;;;;;7.70;1.40;;;21.90;25.80;;;;;;5022641;28;20528;-73
2022/10/06 13:43:22;;;;;;;7.33;1.80;;;21.90;26.00;;;;;;5020723;28;20480;-74
2022/10/06 13:46:11;;;;;;;6.80;1.70;;;21.90;25.70;;;;;;5039956;28;20474;-73
2022/10/06 13:48:59;;;;;;;5.07;1.37;;;22.10;25.50;;;;;;5026952;28;20901;-72
2022/10/06 13:51:50;;;;;;;3.67;1.43;;;22.30;25.50;;;;;;5035403;28;20444;-74
2022/10/06 13:54:41;;;;;;;6.60;1.43;;;22.30;26.10;;;;;;5018369;28;21085;-73
2022/10/06 13:57:35;;;;;;;6.63;1.70;;;21.80;25.90;;;;;;5023948;28;20546;-74
2022/10/06 14:00:25;;;;;;;8.00;1.63;;;21.70;27.60;;;;;;5031715;28;20448;-73
2022/10/06 14:03:20;;;;;;;10.80;1.70;;;21.60;27.80;;;;;;5025345;28;20438;-74
2022/10/06 14:06:08;;;;;;;7.90;1.67;;;21.60;27.40;;;;;;5017541;28;20452;-75
2022/10/06 14:08:57;;;;;;;8.30;1.50;;;21.80;27.90;;;;;;5019940;28;21298;-76
2022/10/06 14:11:43;;;;;;;7.10;1.73;;;21.90;28.00;;;;;;5028772;28;20433;-76
2022/10/06 14:14:29;;;;;;;5.00;1.57;;;21.80;27.90;;;;;;5026967;28;20690;-74
2022/10/06 14:17:22;;;;;;;7.07;2.00;;;21.80;26.90;;;;;;5032001;28;20510;-76
2022/10/06 14:20:41;;;;;;;4.57;1.40;;;21.80;25.80;;;;;;5026081;28;20494;-74
2022/10/06 14:23:42;;;;;;;4.77;1.20;;;22.10;26.00;;;;;;5027961;28;20483;-76
2022/10/06 14:26:30;;;;;;;10.50;1.30;;;22.60;25.40;;;;;;5025892;28;20872;-76
2022/10/06 14:29:17;;;;;;;5.90;1.50;;;22.90;24.90;;;;;;5026461;28;20436;-74
2022/10/06 14:32:12;;;;;;;5.70;1.47;;;22.90;26.60;;;;;;5032409;28;20995;-77
2022/10/06 14:35:01;;;;;;;4.47;1.40;;;23.10;29.00;;;;;;5023934;28;21073;-74
2022/10/06 14:37:47;;;;;;;9.97;2.00;;;23.00;25.90;;;;;;5025550;28;20448;-76
2022/10/06 14:40:32;;;;;;;4.13;1.27;;;22.80;25.30;;;;;;5020757;28;20444;-76
2022/10/06 14:43:18;;;;;;;4.70;1.10;;;23.00;28.10;;;;;;5026190;28;20463;-76
2022/10/06 14:46:04;;;;;;;7.23;1.50;;;23.10;27.90;;;;;;5025812;28;20439;-76
2022/10/06 14:48:50;;;;;;;6.00;1.33;;;23.10;27.50;;;;;;5026793;28;20905;-76
2022/10/06 14:51:38;;;;;;;7.63;1.20;;;23.00;31.90;;;;;;5021296;28;20542;-76
2022/10/06 14:54:24;;;;;;;6.97;1.13;;;23.10;34.00;;;;;;5020749;28;20606;-76
2022/10/06 14:57:10;;;;;;;4.40;0.90;;;22.90;33.60;;;;;;5027540;28;20475;-76
2022/10/06 14:59:55;;;;;;;5.73;1.20;;;23.00;31.20;;;;;;5027920;28;20435;-75